sensor_id;sensor_type;location;lat;lon;timestamp;noise_LAeq;noise_LA_min;noise_LA_max;noise_LA01;noise_LA95
68279;Laerm;55108;51.790;10.960;2023-07-22T00:01:01;60.34;29.38;75.17;;
68279;Laerm;55108;51.790;10.960;2023-07-22T00:03:26;33.14;29.33;45.62;;
68279;Laerm;55108;51.790;10.960;2023-07-22T00:06:10;33.94;30.01;38.72;;
68279;Laerm;55108;51.790;10.960;2023-07-22T00:08:37;51.18;30.56;68.42;;
68279;Laerm;55108;51.790;10.960;2023-07-22T00:11:03;33.19;29.14;39.13;;
68279;Laerm;55108;51.790;10.960;2023-07-22T00:13:29;56.43;29.51;72.79;;
68279;Laerm;55108;51.790;10.960;2023-07-22T00:15:55;53.92;28.76;70.91;;
68279;Laerm;55108;51.790;10.960;2023-07-22T00:18:22;61.40;28.91;78.72;;
68279;Laerm;55108;51.790;10.960;2023-07-22T00:20:48;59.19;29.52;74.88;;
68279;Laerm;55108;51.790;10.960;2023-07-22T00:23:15;31.75;29.58;38.10;;
68279;Laerm;55108;51.790;10.960;2023-07-22T00:25:41;31.36;28.58;36.48;;
68279;Laerm;55108;51.790;10.960;2023-07-22T00:28:06;33.29;28.99;43.99;;
68279;Laerm;55108;51.790;10.960;2023-07-22T00:30:32;31.45;27.87;39.38;;
68279;Laerm;55108;51.790;10.960;2023-07-22T00:32:58;30.40;28.20;36.69;;
68279;Laerm;55108;51.790;10.960;2023-07-22T00:35:24;50.85;27.73;66.84;;
68279;Laerm;55108;51.790;10.960;2023-07-22T00:37:50;30.21;27.18;40.89;;
68279;Laerm;55108;51.790;10.960;2023-07-22T00:40:16;30.13;26.87;42.03;;
68279;Laerm;55108;51.790;10.960;2023-07-22T00:42:42;30.32;27.08;40.85;;
68279;Laerm;55108;51.790;10.960;2023-07-22T00:45:08;27.44;26.67;34.35;;
68279;Laerm;55108;51.790;10.960;2023-07-22T00:47:34;55.36;27.03;73.22;;
68279;Laerm;55108;51.790;10.960;2023-07-22T00:50:03;28.18;26.76;35.14;;
68279;Laerm;55108;51.790;10.960;2023-07-22T00:52:31;47.02;26.90;64.10;;
68279;Laerm;55108;51.790;10.960;2023-07-22T00:54:56;53.26;26.90;70.34;;
68279;Laerm;55108;51.790;10.960;2023-07-22T00:57:23;54.54;27.59;71.75;;
68279;Laerm;55108;51.790;10.960;2023-07-22T00:59:48;29.04;27.13;33.94;;
68279;Laerm;55108;51.790;10.960;2023-07-22T01:02:14;28.42;27.04;39.76;;
68279;Laerm;55108;51.790;10.960;2023-07-22T01:04:40;29.40;27.57;36.04;;
68279;Laerm;55108;51.790;10.960;2023-07-22T01:07:06;37.52;28.88;59.75;;
68279;Laerm;55108;51.790;10.960;2023-07-22T01:09:36;30.77;28.16;39.66;;
68279;Laerm;55108;51.790;10.960;2023-07-22T01:12:03;33.97;28.69;43.38;;
68279;Laerm;55108;51.790;10.960;2023-07-22T01:14:28;37.77;27.88;57.49;;
68279;Laerm;55108;51.790;10.960;2023-07-22T01:16:54;54.28;27.47;71.76;;
68279;Laerm;55108;51.790;10.960;2023-07-22T01:19:20;54.34;27.83;71.59;;
68279;Laerm;55108;51.790;10.960;2023-07-22T01:21:46;31.68;27.44;40.25;;
68279;Laerm;55108;51.790;10.960;2023-07-22T01:24:12;33.57;27.66;47.09;;
68279;Laerm;55108;51.790;10.960;2023-07-22T01:26:38;53.04;27.60;70.30;;
68279;Laerm;55108;51.790;10.960;2023-07-22T01:29:04;31.58;28.08;43.11;;
68279;Laerm;55108;51.790;10.960;2023-07-22T01:31:30;54.78;28.58;71.99;;
68279;Laerm;55108;51.790;10.960;2023-07-22T01:33:56;30.95;28.72;36.34;;
68279;Laerm;55108;51.790;10.960;2023-07-22T01:36:23;32.53;29.31;44.91;;
68279;Laerm;55108;51.790;10.960;2023-07-22T01:38:50;59.86;28.85;76.72;;
68279;Laerm;55108;51.790;10.960;2023-07-22T01:41:15;29.26;27.05;34.36;;
68279;Laerm;55108;51.790;10.960;2023-07-22T01:43:41;57.89;27.25;73.93;;
68279;Laerm;55108;51.790;10.960;2023-07-22T01:46:07;52.21;27.34;68.18;;
68279;Laerm;55108;51.790;10.960;2023-07-22T01:48:33;30.21;27.83;39.03;;
68279;Laerm;55108;51.790;10.960;2023-07-22T01:50:58;34.34;28.00;51.15;;
68279;Laerm;55108;51.790;10.960;2023-07-22T01:53:24;57.75;27.69;75.67;;
68279;Laerm;55108;51.790;10.960;2023-07-22T01:55:50;30.24;27.65;39.40;;
68279;Laerm;55108;51.790;10.960;2023-07-22T01:58:16;55.89;30.58;72.78;;
68279;Laerm;55108;51.790;10.960;2023-07-22T02:00:41;56.96;28.70;74.60;;
68279;Laerm;55108;51.790;10.960;2023-07-22T02:03:07;52.65;30.06;68.13;;
68279;Laerm;55108;51.790;10.960;2023-07-22T02:05:33;68.70;30.61;86.55;;
68279;Laerm;55108;51.790;10.960;2023-07-22T02:07:59;53.45;29.37;70.81;;
68279;Laerm;55108;51.790;10.960;2023-07-22T02:10:24;54.68;28.70;72.23;;
68279;Laerm;55108;51.790;10.960;2023-07-22T02:12:50;54.60;28.77;68.73;;
68279;Laerm;55108;51.790;10.960;2023-07-22T02:15:16;30.76;27.87;43.04;;
68279;Laerm;55108;51.790;10.960;2023-07-22T02:17:42;51.47;28.06;68.58;;
68279;Laerm;55108;51.790;10.960;2023-07-22T02:20:07;37.89;29.01;51.65;;
68279;Laerm;55108;51.790;10.960;2023-07-22T02:22:34;34.01;28.64;48.22;;
68279;Laerm;55108;51.790;10.960;2023-07-22T02:24:59;30.13;28.11;39.17;;
68279;Laerm;55108;51.790;10.960;2023-07-22T02:27:25;54.73;29.20;71.44;;
68279;Laerm;55108;51.790;10.960;2023-07-22T02:29:51;54.38;28.94;74.47;;
68279;Laerm;55108;51.790;10.960;2023-07-22T02:32:17;57.52;27.91;75.32;;
68279;Laerm;55108;51.790;10.960;2023-07-22T02:34:42;56.72;28.30;75.29;;
68279;Laerm;55108;51.790;10.960;2023-07-22T02:37:08;54.63;27.95;71.09;;
68279;Laerm;55108;51.790;10.960;2023-07-22T02:39:34;56.84;29.01;75.31;;
68279;Laerm;55108;51.790;10.960;2023-07-22T02:42:00;32.00;27.68;43.85;;
68279;Laerm;55108;51.790;10.960;2023-07-22T02:44:26;33.62;27.81;48.16;;
68279;Laerm;55108;51.790;10.960;2023-07-22T02:46:52;35.78;28.51;51.73;;
68279;Laerm;55108;51.790;10.960;2023-07-22T02:49:17;60.34;27.91;75.52;;
68279;Laerm;55108;51.790;10.960;2023-07-22T02:51:43;54.91;27.34;71.02;;
68279;Laerm;55108;51.790;10.960;2023-07-22T02:54:09;34.19;27.38;54.14;;
68279;Laerm;55108;51.790;10.960;2023-07-22T02:56:35;55.22;28.47;71.96;;
68279;Laerm;55108;51.790;10.960;2023-07-22T02:59:01;62.00;28.40;81.05;;
68279;Laerm;55108;51.790;10.960;2023-07-22T03:01:26;57.51;28.77;76.54;;
68279;Laerm;55108;51.790;10.960;2023-07-22T03:03:53;56.30;27.92;72.47;;
68279;Laerm;55108;51.790;10.960;2023-07-22T03:06:18;32.95;27.74;44.21;;
68279;Laerm;55108;51.790;10.960;2023-07-22T03:08:44;56.52;27.99;74.35;;
68279;Laerm;55108;51.790;10.960;2023-07-22T03:11:10;49.38;28.01;66.09;;
68279;Laerm;55108;51.790;10.960;2023-07-22T03:13:36;32.46;28.60;40.32;;
68279;Laerm;55108;51.790;10.960;2023-07-22T03:16:01;50.73;29.81;65.95;;
68279;Laerm;55108;51.790;10.960;2023-07-22T03:18:30;57.39;31.89;73.21;;
68279;Laerm;55108;51.790;10.960;2023-07-22T03:20:56;56.66;32.07;75.46;;
68279;Laerm;55108;51.790;10.960;2023-07-22T03:23:22;55.65;31.41;72.23;;
68279;Laerm;55108;51.790;10.960;2023-07-22T03:25:48;61.43;32.71;75.93;;
68279;Laerm;55108;51.790;10.960;2023-07-22T03:28:14;60.71;32.83;75.75;;
68279;Laerm;55108;51.790;10.960;2023-07-22T03:30:39;60.48;32.12;79.46;;
68279;Laerm;55108;51.790;10.960;2023-07-22T03:33:05;53.19;32.18;70.24;;
68279;Laerm;55108;51.790;10.960;2023-07-22T03:35:32;59.19;32.75;75.50;;
68279;Laerm;55108;51.790;10.960;2023-07-22T03:37:58;55.77;31.94;72.67;;
68279;Laerm;55108;51.790;10.960;2023-07-22T03:40:24;61.72;33.74;75.70;;
68279;Laerm;55108;51.790;10.960;2023-07-22T03:42:55;39.06;30.92;47.31;;
68279;Laerm;55108;51.790;10.960;2023-07-22T03:45:21;58.04;31.27;71.68;;
68279;Laerm;55108;51.790;10.960;2023-07-22T03:47:50;59.38;33.66;74.57;;
68279;Laerm;55108;51.790;10.960;2023-07-22T03:50:16;59.68;34.41;73.84;;
68279;Laerm;55108;51.790;10.960;2023-07-22T03:52:41;54.06;32.11;72.09;;
68279;Laerm;55108;51.790;10.960;2023-07-22T03:55:07;58.96;34.22;71.85;;
68279;Laerm;55108;51.790;10.960;2023-07-22T03:57:33;64.19;35.75;78.59;;
68279;Laerm;55108;51.790;10.960;2023-07-22T03:59:59;58.88;34.77;78.38;;
68279;Laerm;55108;51.790;10.960;2023-07-22T04:02:25;52.70;33.02;68.80;;
68279;Laerm;55108;51.790;10.960;2023-07-22T04:04:54;60.88;34.98;72.94;;
68279;Laerm;55108;51.790;10.960;2023-07-22T04:07:20;64.68;37.27;79.32;;
68279;Laerm;55108;51.790;10.960;2023-07-22T04:09:46;58.14;34.99;72.82;;
68279;Laerm;55108;51.790;10.960;2023-07-22T04:12:12;56.58;35.70;69.38;;
68279;Laerm;55108;51.790;10.960;2023-07-22T04:14:38;53.17;32.51;71.50;;
68279;Laerm;55108;51.790;10.960;2023-07-22T04:17:03;61.56;34.76;74.40;;
68279;Laerm;55108;51.790;10.960;2023-07-22T04:19:29;55.91;32.89;73.59;;
68279;Laerm;55108;51.790;10.960;2023-07-22T04:21:55;57.41;30.64;74.19;;
68279;Laerm;55108;51.790;10.960;2023-07-22T04:24:21;66.13;36.04;80.45;;
68279;Laerm;55108;51.790;10.960;2023-07-22T04:26:47;56.63;34.27;75.91;;
68279;Laerm;55108;51.790;10.960;2023-07-22T04:29:12;59.40;36.85;72.16;;
68279;Laerm;55108;51.790;10.960;2023-07-22T04:31:38;63.39;37.77;78.94;;
68279;Laerm;55108;51.790;10.960;2023-07-22T04:34:04;62.96;41.78;73.08;;
68279;Laerm;55108;51.790;10.960;2023-07-22T04:36:30;67.17;35.15;79.22;;
68279;Laerm;55108;51.790;10.960;2023-07-22T04:38:56;57.70;33.56;71.57;;
68279;Laerm;55108;51.790;10.960;2023-07-22T04:41:22;61.12;36.38;74.43;;
68279;Laerm;55108;51.790;10.960;2023-07-22T04:43:47;57.87;34.86;74.52;;
68279;Laerm;55108;51.790;10.960;2023-07-22T04:46:15;65.58;37.71;79.18;;
68279;Laerm;55108;51.790;10.960;2023-07-22T04:48:41;51.50;33.68;66.29;;
68279;Laerm;55108;51.790;10.960;2023-07-22T04:51:07;67.09;39.55;83.32;;
68279;Laerm;55108;51.790;10.960;2023-07-22T04:53:32;62.46;37.12;74.63;;
68279;Laerm;55108;51.790;10.960;2023-07-22T04:55:58;58.68;37.76;71.44;;
68279;Laerm;55108;51.790;10.960;2023-07-22T04:58:24;64.14;40.02;81.03;;
68279;Laerm;55108;51.790;10.960;2023-07-22T05:00:50;59.66;35.69;74.18;;
68279;Laerm;55108;51.790;10.960;2023-07-22T05:03:16;61.50;35.52;75.60;;
68279;Laerm;55108;51.790;10.960;2023-07-22T05:05:43;41.07;35.69;54.42;;
68279;Laerm;55108;51.790;10.960;2023-07-22T05:08:08;60.24;32.34;74.95;;
68279;Laerm;55108;51.790;10.960;2023-07-22T05:10:34;62.89;31.87;76.43;;
68279;Laerm;55108;51.790;10.960;2023-07-22T05:13:00;62.35;36.23;76.60;;
68279;Laerm;55108;51.790;10.960;2023-07-22T05:15:26;60.33;36.15;74.16;;
68279;Laerm;55108;51.790;10.960;2023-07-22T05:17:51;62.06;35.39;74.37;;
68279;Laerm;55108;51.790;10.960;2023-07-22T05:20:17;59.37;36.57;76.03;;
68279;Laerm;55108;51.790;10.960;2023-07-22T05:22:43;61.71;37.35;74.33;;
68279;Laerm;55108;51.790;10.960;2023-07-22T05:25:08;62.05;39.00;75.28;;
68279;Laerm;55108;51.790;10.960;2023-07-22T05:27:37;64.60;39.23;76.34;;
68279;Laerm;55108;51.790;10.960;2023-07-22T05:30:03;63.49;38.10;76.57;;
68279;Laerm;55108;51.790;10.960;2023-07-22T05:32:29;63.17;43.76;75.23;;
68279;Laerm;55108;51.790;10.960;2023-07-22T05:34:55;65.38;39.66;78.84;;
68279;Laerm;55108;51.790;10.960;2023-07-22T05:37:21;62.78;40.45;74.61;;
68279;Laerm;55108;51.790;10.960;2023-07-22T05:39:47;64.79;40.92;76.98;;
68279;Laerm;55108;51.790;10.960;2023-07-22T05:42:13;61.59;41.04;74.96;;
68279;Laerm;55108;51.790;10.960;2023-07-22T05:44:38;62.18;41.04;74.47;;
68279;Laerm;55108;51.790;10.960;2023-07-22T05:47:04;62.22;39.37;77.14;;
68279;Laerm;55108;51.790;10.960;2023-07-22T05:49:30;65.81;41.28;75.81;;
68279;Laerm;55108;51.790;10.960;2023-07-22T05:51:56;64.36;41.88;76.34;;
68279;Laerm;55108;51.790;10.960;2023-07-22T05:54:22;63.81;39.12;77.79;;
68279;Laerm;55108;51.790;10.960;2023-07-22T05:56:48;64.36;40.18;75.01;;
68279;Laerm;55108;51.790;10.960;2023-07-22T05:59:13;64.42;40.20;77.33;;
68279;Laerm;55108;51.790;10.960;2023-07-22T06:01:39;63.28;38.75;74.00;;
68279;Laerm;55108;51.790;10.960;2023-07-22T06:04:05;65.76;40.54;76.54;;
68279;Laerm;55108;51.790;10.960;2023-07-22T06:06:31;63.28;40.34;79.31;;
68279;Laerm;55108;51.790;10.960;2023-07-22T06:08:57;65.41;35.84;76.19;;
68279;Laerm;55108;51.790;10.960;2023-07-22T06:11:23;61.84;38.40;73.59;;
68279;Laerm;55108;51.790;10.960;2023-07-22T06:13:48;63.92;37.80;75.80;;
68279;Laerm;55108;51.790;10.960;2023-07-22T06:16:14;65.75;39.27;77.26;;
68279;Laerm;55108;51.790;10.960;2023-07-22T06:18:40;65.79;38.83;78.56;;
68279;Laerm;55108;51.790;10.960;2023-07-22T06:21:06;65.34;39.34;77.32;;
68279;Laerm;55108;51.790;10.960;2023-07-22T06:23:32;66.07;40.35;77.67;;
68279;Laerm;55108;51.790;10.960;2023-07-22T06:25:57;62.96;38.51;77.56;;
68279;Laerm;55108;51.790;10.960;2023-07-22T06:28:23;64.64;39.89;75.48;;
68279;Laerm;55108;51.790;10.960;2023-07-22T06:30:49;65.76;34.35;83.11;;
68279;Laerm;55108;51.790;10.960;2023-07-22T06:33:15;64.03;43.23;74.53;;
68279;Laerm;55108;51.790;10.960;2023-07-22T06:35:41;61.65;37.11;73.16;;
68279;Laerm;55108;51.790;10.960;2023-07-22T06:38:07;64.99;39.80;74.75;;
68279;Laerm;55108;51.790;10.960;2023-07-22T06:40:33;63.71;39.11;75.15;;
68279;Laerm;55108;51.790;10.960;2023-07-22T06:42:58;68.02;45.81;82.10;;
68279;Laerm;55108;51.790;10.960;2023-07-22T06:45:24;64.93;39.85;77.88;;
68279;Laerm;55108;51.790;10.960;2023-07-22T06:47:50;64.70;41.21;75.11;;
68279;Laerm;55108;51.790;10.960;2023-07-22T06:50:16;63.68;41.48;77.49;;
68279;Laerm;55108;51.790;10.960;2023-07-22T06:52:41;64.12;42.47;77.48;;
68279;Laerm;55108;51.790;10.960;2023-07-22T06:55:07;66.35;44.51;74.72;;
68279;Laerm;55108;51.790;10.960;2023-07-22T06:57:33;65.24;44.93;78.35;;
68279;Laerm;55108;51.790;10.960;2023-07-22T06:59:59;68.39;44.85;78.45;;
68279;Laerm;55108;51.790;10.960;2023-07-22T07:02:25;64.13;44.54;76.05;;
68279;Laerm;55108;51.790;10.960;2023-07-22T07:04:50;64.75;41.22;75.14;;
68279;Laerm;55108;51.790;10.960;2023-07-22T07:07:16;67.72;45.68;77.07;;
68279;Laerm;55108;51.790;10.960;2023-07-22T07:09:42;66.77;43.17;75.60;;
68279;Laerm;55108;51.790;10.960;2023-07-22T07:12:08;67.67;44.49;76.40;;
68279;Laerm;55108;51.790;10.960;2023-07-22T07:14:34;65.84;43.61;75.05;;
68279;Laerm;55108;51.790;10.960;2023-07-22T07:17:00;65.70;43.41;79.52;;
68279;Laerm;55108;51.790;10.960;2023-07-22T07:19:26;65.36;45.27;75.44;;
68279;Laerm;55108;51.790;10.960;2023-07-22T07:21:52;66.01;43.22;75.74;;
68279;Laerm;55108;51.790;10.960;2023-07-22T07:24:18;66.50;41.75;76.67;;
68279;Laerm;55108;51.790;10.960;2023-07-22T07:26:43;65.46;37.59;79.25;;
68279;Laerm;55108;51.790;10.960;2023-07-22T07:29:09;67.80;45.35;74.96;;
68279;Laerm;55108;51.790;10.960;2023-07-22T07:31:35;66.39;43.01;75.55;;
68279;Laerm;55108;51.790;10.960;2023-07-22T07:34:01;66.72;48.38;77.66;;
68279;Laerm;55108;51.790;10.960;2023-07-22T07:36:27;69.51;49.26;83.31;;
68279;Laerm;55108;51.790;10.960;2023-07-22T07:38:52;69.56;49.94;83.07;;
68279;Laerm;55108;51.790;10.960;2023-07-22T07:41:18;65.82;50.10;75.14;;
68279;Laerm;55108;51.790;10.960;2023-07-22T07:43:44;68.71;49.86;78.92;;
68279;Laerm;55108;51.790;10.960;2023-07-22T07:48:38;67.34;43.05;81.95;;
68279;Laerm;55108;51.790;10.960;2023-07-22T07:51:04;66.04;44.76;74.19;;
68279;Laerm;55108;51.790;10.960;2023-07-22T07:53:29;68.27;47.93;80.61;;
68279;Laerm;55108;51.790;10.960;2023-07-22T07:55:55;67.75;44.50;75.18;;
68279;Laerm;55108;51.790;10.960;2023-07-22T07:58:21;64.96;43.77;80.35;;
68279;Laerm;55108;51.790;10.960;2023-07-22T08:00:47;68.09;47.00;75.68;;
68279;Laerm;55108;51.790;10.960;2023-07-22T08:03:12;67.66;47.38;77.44;;
68279;Laerm;55108;51.790;10.960;2023-07-22T08:05:39;68.70;50.62;78.11;;
68279;Laerm;55108;51.790;10.960;2023-07-22T08:08:05;66.69;46.71;76.90;;
68279;Laerm;55108;51.790;10.960;2023-07-22T08:10:30;67.80;43.46;74.73;;
68279;Laerm;55108;51.790;10.960;2023-07-22T08:12:56;68.61;55.29;78.61;;
68279;Laerm;55108;51.790;10.960;2023-07-22T08:15:22;66.94;51.83;76.13;;
68279;Laerm;55108;51.790;10.960;2023-07-22T08:17:47;68.25;53.65;91.91;;
68279;Laerm;55108;51.790;10.960;2023-07-22T08:20:13;66.29;42.04;76.53;;
68279;Laerm;55108;51.790;10.960;2023-07-22T08:22:39;66.07;40.92;73.92;;
68279;Laerm;55108;51.790;10.960;2023-07-22T08:25:05;68.83;43.35;79.15;;
68279;Laerm;55108;51.790;10.960;2023-07-22T08:27:30;66.36;49.45;73.42;;
68279;Laerm;55108;51.790;10.960;2023-07-22T08:29:56;68.05;48.84;81.09;;
68279;Laerm;55108;51.790;10.960;2023-07-22T08:32:22;66.42;43.22;74.69;;
68279;Laerm;55108;51.790;10.960;2023-07-22T08:34:48;66.57;44.45;77.90;;
68279;Laerm;55108;51.790;10.960;2023-07-22T08:37:13;69.09;51.31;89.14;;
68279;Laerm;55108;51.790;10.960;2023-07-22T08:39:39;67.68;48.30;76.99;;
68279;Laerm;55108;51.790;10.960;2023-07-22T08:42:05;67.57;42.68;76.34;;
68279;Laerm;55108;51.790;10.960;2023-07-22T08:44:32;65.72;43.39;78.83;;
68279;Laerm;55108;51.790;10.960;2023-07-22T08:47:01;67.67;45.30;76.36;;
68279;Laerm;55108;51.790;10.960;2023-07-22T08:49:29;67.31;44.67;74.77;;
68279;Laerm;55108;51.790;10.960;2023-07-22T08:51:55;66.66;45.02;75.33;;
68279;Laerm;55108;51.790;10.960;2023-07-22T08:54:24;67.01;43.76;76.06;;
68279;Laerm;55108;51.790;10.960;2023-07-22T08:56:50;67.86;45.84;77.54;;
68279;Laerm;55108;51.790;10.960;2023-07-22T08:59:19;67.90;48.64;75.82;;
68279;Laerm;55108;51.790;10.960;2023-07-22T09:01:46;67.40;46.41;75.63;;
68279;Laerm;55108;51.790;10.960;2023-07-22T09:04:12;68.50;50.41;81.42;;
68279;Laerm;55108;51.790;10.960;2023-07-22T09:06:38;67.96;46.88;74.85;;
68279;Laerm;55108;51.790;10.960;2023-07-22T09:09:04;70.64;46.28;85.43;;
68279;Laerm;55108;51.790;10.960;2023-07-22T09:11:32;66.62;44.75;76.19;;
68279;Laerm;55108;51.790;10.960;2023-07-22T09:13:58;66.40;45.75;76.26;;
68279;Laerm;55108;51.790;10.960;2023-07-22T09:16:26;65.22;45.69;72.95;;
68279;Laerm;55108;51.790;10.960;2023-07-22T09:18:54;69.23;46.67;88.95;;
68279;Laerm;55108;51.790;10.960;2023-07-22T09:21:20;72.02;46.03;87.75;;
68279;Laerm;55108;51.790;10.960;2023-07-22T09:23:46;66.72;44.34;76.90;;
68279;Laerm;55108;51.790;10.960;2023-07-22T09:26:12;67.04;41.81;75.31;;
68279;Laerm;55108;51.790;10.960;2023-07-22T09:28:48;66.35;45.40;76.82;;
68279;Laerm;55108;51.790;10.960;2023-07-22T09:31:14;66.60;44.73;76.99;;
68279;Laerm;55108;51.790;10.960;2023-07-22T09:33:40;66.34;47.26;73.53;;
68279;Laerm;55108;51.790;10.960;2023-07-22T09:36:05;65.98;44.37;74.00;;
68279;Laerm;55108;51.790;10.960;2023-07-22T09:38:31;65.69;43.83;73.73;;
68279;Laerm;55108;51.790;10.960;2023-07-22T09:40:57;67.55;47.50;77.65;;
68279;Laerm;55108;51.790;10.960;2023-07-22T09:43:23;67.47;45.20;75.21;;
68279;Laerm;55108;51.790;10.960;2023-07-22T09:45:49;67.35;47.38;76.72;;
68279;Laerm;55108;51.790;10.960;2023-07-22T09:48:15;67.69;43.68;77.81;;
68279;Laerm;55108;51.790;10.960;2023-07-22T09:50:40;67.02;44.21;74.94;;
68279;Laerm;55108;51.790;10.960;2023-07-22T09:53:06;66.74;41.68;75.79;;
68279;Laerm;55108;51.790;10.960;2023-07-22T09:55:32;66.20;44.23;75.66;;
68279;Laerm;55108;51.790;10.960;2023-07-22T09:57:59;66.91;41.18;76.53;;
68279;Laerm;55108;51.790;10.960;2023-07-22T10:00:28;68.25;45.95;78.43;;
68279;Laerm;55108;51.790;10.960;2023-07-22T10:02:55;67.14;47.81;75.00;;
68279;Laerm;55108;51.790;10.960;2023-07-22T10:05:21;67.02;46.37;77.11;;
68279;Laerm;55108;51.790;10.960;2023-07-22T10:07:51;68.06;45.74;81.33;;
68279;Laerm;55108;51.790;10.960;2023-07-22T10:10:17;66.10;43.07;75.50;;
68279;Laerm;55108;51.790;10.960;2023-07-22T10:12:43;68.22;44.75;77.48;;
68279;Laerm;55108;51.790;10.960;2023-07-22T10:15:10;67.17;40.05;84.25;;
68279;Laerm;55108;51.790;10.960;2023-07-22T10:17:37;66.29;46.12;80.61;;
68279;Laerm;55108;51.790;10.960;2023-07-22T10:20:03;66.41;43.38;76.68;;
68279;Laerm;55108;51.790;10.960;2023-07-22T10:22:34;66.50;44.69;75.54;;
68279;Laerm;55108;51.790;10.960;2023-07-22T10:25:01;66.61;45.74;74.35;;
68279;Laerm;55108;51.790;10.960;2023-07-22T10:27:29;68.25;48.38;75.24;;
68279;Laerm;55108;51.790;10.960;2023-07-22T10:29:56;65.50;41.00;77.76;;
68279;Laerm;55108;51.790;10.960;2023-07-22T10:32:22;67.07;42.17;80.55;;
68279;Laerm;55108;51.790;10.960;2023-07-22T10:34:48;67.64;43.25;75.69;;
68279;Laerm;55108;51.790;10.960;2023-07-22T10:37:13;66.88;45.00;76.02;;
68279;Laerm;55108;51.790;10.960;2023-07-22T10:39:43;66.78;41.92;83.55;;
68279;Laerm;55108;51.790;10.960;2023-07-22T10:42:08;67.08;42.43;77.23;;
68279;Laerm;55108;51.790;10.960;2023-07-22T10:44:40;66.21;41.18;74.58;;
68279;Laerm;55108;51.790;10.960;2023-07-22T10:47:07;67.29;42.69;77.58;;
68279;Laerm;55108;51.790;10.960;2023-07-22T10:49:46;65.04;38.50;75.37;;
68279;Laerm;55108;51.790;10.960;2023-07-22T10:52:12;66.95;42.95;75.46;;
68279;Laerm;55108;51.790;10.960;2023-07-22T10:54:39;64.82;47.20;74.64;;
68279;Laerm;55108;51.790;10.960;2023-07-22T10:59:39;66.05;44.33;78.55;;
68279;Laerm;55108;51.790;10.960;2023-07-22T11:02:22;67.00;49.35;76.08;;
68279;Laerm;55108;51.790;10.960;2023-07-22T11:04:57;69.15;48.80;89.30;;
68279;Laerm;55108;51.790;10.960;2023-07-22T11:07:32;69.65;45.69;83.17;;
68279;Laerm;55108;51.790;10.960;2023-07-22T11:09:58;65.04;43.77;74.97;;
68279;Laerm;55108;51.790;10.960;2023-07-22T11:12:35;66.68;43.95;77.94;;
68279;Laerm;55108;51.790;10.960;2023-07-22T11:15:04;67.00;47.78;78.95;;
68279;Laerm;55108;51.790;10.960;2023-07-22T11:17:31;65.98;44.26;75.14;;
68279;Laerm;55108;51.790;10.960;2023-07-22T11:20:00;65.65;42.95;74.42;;
68279;Laerm;55108;51.790;10.960;2023-07-22T11:22:26;65.03;41.81;74.14;;
68279;Laerm;55108;51.790;10.960;2023-07-22T11:24:54;65.92;39.54;76.33;;
68279;Laerm;55108;51.790;10.960;2023-07-22T11:27:20;66.85;44.99;78.21;;
68279;Laerm;55108;51.790;10.960;2023-07-22T11:29:47;65.52;45.34;75.96;;
68279;Laerm;55108;51.790;10.960;2023-07-22T11:32:16;66.12;44.48;76.36;;
68279;Laerm;55108;51.790;10.960;2023-07-22T11:34:42;66.62;45.02;76.81;;
68279;Laerm;55108;51.790;10.960;2023-07-22T11:37:11;65.95;43.11;74.44;;
68279;Laerm;55108;51.790;10.960;2023-07-22T11:39:38;66.29;44.61;75.17;;
68279;Laerm;55108;51.790;10.960;2023-07-22T11:42:04;65.41;40.14;75.53;;
68279;Laerm;55108;51.790;10.960;2023-07-22T11:44:30;67.66;47.35;79.24;;
68279;Laerm;55108;51.790;10.960;2023-07-22T11:46:57;65.83;39.39;75.83;;
68279;Laerm;55108;51.790;10.960;2023-07-22T11:52:01;65.62;45.00;74.97;;
68279;Laerm;55108;51.790;10.960;2023-07-22T11:54:28;65.91;42.71;74.98;;
68279;Laerm;55108;51.790;10.960;2023-07-22T11:56:57;66.19;41.35;79.62;;
68279;Laerm;55108;51.790;10.960;2023-07-22T11:59:32;64.34;41.26;74.30;;
68279;Laerm;55108;51.790;10.960;2023-07-22T12:01:59;65.72;41.26;75.07;;
68279;Laerm;55108;51.790;10.960;2023-07-22T12:04:25;66.87;44.79;78.62;;
68279;Laerm;55108;51.790;10.960;2023-07-22T12:06:51;66.15;41.42;79.79;;
68279;Laerm;55108;51.790;10.960;2023-07-22T12:09:16;67.29;43.43;76.98;;
68279;Laerm;55108;51.790;10.960;2023-07-22T12:11:42;66.36;40.42;76.46;;
68279;Laerm;55108;51.790;10.960;2023-07-22T12:14:08;65.13;40.04;75.01;;
68279;Laerm;55108;51.790;10.960;2023-07-22T12:16:35;67.43;43.23;75.50;;
68279;Laerm;55108;51.790;10.960;2023-07-22T12:19:02;66.75;45.39;76.71;;
68279;Laerm;55108;51.790;10.960;2023-07-22T12:21:28;66.26;41.02;75.62;;
68279;Laerm;55108;51.790;10.960;2023-07-22T12:23:53;65.22;39.88;75.23;;
68279;Laerm;55108;51.790;10.960;2023-07-22T12:26:19;65.53;38.73;75.83;;
68279;Laerm;55108;51.790;10.960;2023-07-22T12:28:45;67.44;44.07;76.60;;
68279;Laerm;55108;51.790;10.960;2023-07-22T12:31:11;66.86;40.84;74.78;;
68279;Laerm;55108;51.790;10.960;2023-07-22T12:33:37;66.01;41.48;76.48;;
68279;Laerm;55108;51.790;10.960;2023-07-22T12:36:03;65.89;39.40;76.88;;
68279;Laerm;55108;51.790;10.960;2023-07-22T12:38:28;67.26;44.07;75.95;;
68279;Laerm;55108;51.790;10.960;2023-07-22T12:40:54;66.44;41.54;77.35;;
68279;Laerm;55108;51.790;10.960;2023-07-22T12:43:20;67.42;41.58;77.48;;
68279;Laerm;55108;51.790;10.960;2023-07-22T12:45:46;67.25;41.07;75.10;;
68279;Laerm;55108;51.790;10.960;2023-07-22T12:48:11;66.24;39.63;76.22;;
68279;Laerm;55108;51.790;10.960;2023-07-22T12:50:37;65.93;40.20;74.73;;
68279;Laerm;55108;51.790;10.960;2023-07-22T12:53:03;66.66;40.46;76.41;;
68279;Laerm;55108;51.790;10.960;2023-07-22T12:55:28;67.01;44.83;74.53;;
68279;Laerm;55108;51.790;10.960;2023-07-22T12:57:54;64.67;38.25;75.37;;
68279;Laerm;55108;51.790;10.960;2023-07-22T13:00:20;66.30;46.75;74.32;;
68279;Laerm;55108;51.790;10.960;2023-07-22T13:02:46;63.73;39.39;75.25;;
68279;Laerm;55108;51.790;10.960;2023-07-22T13:05:12;65.64;43.68;75.03;;
68279;Laerm;55108;51.790;10.960;2023-07-22T13:07:38;62.60;40.19;74.02;;
68279;Laerm;55108;51.790;10.960;2023-07-22T13:10:03;65.80;40.23;74.57;;
68279;Laerm;55108;51.790;10.960;2023-07-22T13:12:32;66.62;40.95;81.16;;
68279;Laerm;55108;51.790;10.960;2023-07-22T13:14:58;65.59;41.47;74.23;;
68279;Laerm;55108;51.790;10.960;2023-07-22T13:17:24;65.63;42.94;75.17;;
68279;Laerm;55108;51.790;10.960;2023-07-22T13:19:50;65.85;36.48;76.51;;
68279;Laerm;55108;51.790;10.960;2023-07-22T13:22:15;64.50;40.09;76.86;;
68279;Laerm;55108;51.790;10.960;2023-07-22T13:24:41;65.46;40.86;77.75;;
68279;Laerm;55108;51.790;10.960;2023-07-22T13:27:07;66.28;43.23;79.92;;
68279;Laerm;55108;51.790;10.960;2023-07-22T13:29:33;64.88;36.58;75.76;;
68279;Laerm;55108;51.790;10.960;2023-07-22T13:31:58;65.32;40.38;75.43;;
68279;Laerm;55108;51.790;10.960;2023-07-22T13:34:24;64.68;40.57;76.60;;